Ackley, IA

2:50 PM CDT on August 01, 2015 (GMT -0500)
Iowa Falls | | Change Station
CLOSE
Current Station
Personal Weather Station
Location: Iowa Falls, IA
Elevation: 1129 ft
Nearby Weather Stations

Elev 1129 ft 42.53 °N, 93.26 °W | Updated 21 seconds ago

Partly Cloudy
Partly Cloudy
86.4 °F
Feels Like 90 °F
N
7.2
Wind Variable Wind from West
Gusts 7.4 mph

Today
High -- | Low -- °F
--% Chance of Precip.
Yesterday
High -- | Low -- °F
Precip. -- in
6:04 AM 8:32 PM
Full, 97% visible
Pressure 30.00 in
Visibility 10.0 miles
Clouds Scattered Clouds 3700 ft
Heat Index 90 °F
Dew Point 69 °F
Humidity 56%
Rainfall 0.00 in
Snow Depth Not available.
UV 6.0 out of 12
Pollen 6.60 out of 12
Air Quality Not available.
Flu Activity Not available.
METAR KIFA 011935Z AUTO 25009KT 10SM SCT037 29/21 A3000 RMK AO2 T02900206

More Conditions Fewer Conditions

Pressure 30.00 in
Visibility 10.0 miles
Clouds Scattered Clouds 3700 ft
Heat Index 90 °F
Dew Point 69 °F
Humidity 56%
Rainfall 0.00 in
Snow Depth Not available.
UV 6.0 out of 12
Pollen 6.60 out of 12
Air Quality Not available.
Flu Activity Not available.
METAR KIFA 011935Z AUTO 25009KT 10SM SCT037 29/21 A3000 RMK AO2 T02900206

More Conditions Fewer Conditions

10-Day Weather Forecast

×

Almanac

Astronomy

Aug. 01, 2015 Rise Set
Actual Time
Civil Twilight
Nautical Twilight
Astronomical Twilight
Moon
Length of Visible Light
Length of Day
Tomorrow will be .
, % of the Moon is Illuminated

Today's Extremes

State Highs State Lows

Community

WunderPhotos

Upload Photos

1,843,043 photos uploaded!

WunderBlogs® & News

Nearby

Air Quality

  Air Quality AQ Index Pollutant
Not available.

Snow Depth

Station Depth Elevation

Earthquake Activity

City Distance Mag. Time & Date
Minimum magnitude displayed is 2.5.

Coastal Water Temperatures

Place Temperature

Stations

Nearby Weather Stations

Station Location Temp. Windchill Dew Point Humidity Wind Precip. Elev Updated Type